sensor_id;sensor_type;location;lat;lon;timestamp;pressure;altitude;pressure_sealevel;temperature;humidity
57574;BME280;68988;49.000;21.242;2023-05-12T00:00:17;98842.84;;;22.46;41.04
57574;BME280;68988;49.000;21.242;2023-05-12T00:02:43;98834.59;;;22.48;41.23
57574;BME280;68988;49.000;21.242;2023-05-12T00:05:09;98845.28;;;22.48;41.20
57574;BME280;68988;49.000;21.242;2023-05-12T00:07:34;98841.53;;;22.49;41.14
57574;BME280;68988;49.000;21.242;2023-05-12T00:10:00;98854.09;;;22.48;41.04
57574;BME280;68988;49.000;21.242;2023-05-12T00:12:26;98850.38;;;22.49;41.08
57574;BME280;68988;49.000;21.242;2023-05-12T00:14:51;98847.69;;;22.49;41.22
57574;BME280;68988;49.000;21.242;2023-05-12T00:17:17;98847.94;;;22.48;41.04
57574;BME280;68988;49.000;21.242;2023-05-12T00:19:42;98856.75;;;22.48;40.90
57574;BME280;68988;49.000;21.242;2023-05-12T00:22:11;98849.00;;;22.47;41.39
57574;BME280;68988;49.000;21.242;2023-05-12T00:24:36;98842.03;;;22.46;41.14
57574;BME280;68988;49.000;21.242;2023-05-12T00:27:02;98852.72;;;22.46;41.02
57574;BME280;68988;49.000;21.242;2023-05-12T00:29:28;98848.19;;;22.46;40.91
57574;BME280;68988;49.000;21.242;2023-05-12T00:31:54;98848.19;;;22.46;40.89
57574;BME280;68988;49.000;21.242;2023-05-12T00:34:20;98851.13;;;22.45;40.90
57574;BME280;68988;49.000;21.242;2023-05-12T00:36:45;98842.53;;;22.43;40.97
57574;BME280;68988;49.000;21.242;2023-05-12T00:39:10;98854.34;;;22.47;40.95
57574;BME280;68988;49.000;21.242;2023-05-12T00:41:36;98848.75;;;22.48;41.01
57574;BME280;68988;49.000;21.242;2023-05-12T00:44:01;98845.78;;;22.45;40.86
57574;BME280;68988;49.000;21.242;2023-05-12T00:46:26;98844.94;;;22.44;40.99
57574;BME280;68988;49.000;21.242;2023-05-12T00:48:52;98848.44;;;22.45;40.85
57574;BME280;68988;49.000;21.242;2023-05-12T00:51:17;98844.16;;;22.44;40.85
57574;BME280;68988;49.000;21.242;2023-05-12T00:53:43;98840.69;;;22.43;40.76
57574;BME280;68988;49.000;21.242;2023-05-12T00:56:10;98846.28;;;22.42;41.08
57574;BME280;68988;49.000;21.242;2023-05-12T00:58:36;98849.50;;;22.44;40.78
57574;BME280;68988;49.000;21.242;2023-05-12T01:01:01;98849.50;;;22.44;40.91
57574;BME280;68988;49.000;21.242;2023-05-12T01:03:27;98854.31;;;22.42;40.94
57574;BME280;68988;49.000;21.242;2023-05-12T01:06:07;98851.66;;;22.47;40.90
57574;BME280;68988;49.000;21.242;2023-05-12T01:08:34;98848.97;;;22.42;40.99
57574;BME280;68988;49.000;21.242;2023-05-12T01:10:59;98859.06;;;22.40;40.94
57574;BME280;68988;49.000;21.242;2023-05-12T01:13:26;98858.81;;;22.41;40.78
57574;BME280;68988;49.000;21.242;2023-05-12T01:15:52;98857.47;;;22.39;40.76
57574;BME280;68988;49.000;21.242;2023-05-12T01:18:20;98861.19;;;22.38;40.75
57574;BME280;68988;49.000;21.242;2023-05-12T01:20:47;98868.16;;;22.39;40.88
57574;BME280;68988;49.000;21.242;2023-05-12T01:23:17;98856.41;;;22.40;40.71
57574;BME280;68988;49.000;21.242;2023-05-12T01:25:43;98855.84;;;22.38;40.73
57574;BME280;68988;49.000;21.242;2023-05-12T01:28:10;98860.16;;;22.39;40.95
57574;BME280;68988;49.000;21.242;2023-05-12T01:30:37;98858.28;;;22.39;40.66
57574;BME280;68988;49.000;21.242;2023-05-12T01:33:06;98855.06;;;22.37;40.63
57574;BME280;68988;49.000;21.242;2023-05-12T01:35:32;98856.91;;;22.37;40.68
57574;BME280;68988;49.000;21.242;2023-05-12T01:37:57;98855.84;;;22.38;40.80
57574;BME280;68988;49.000;21.242;2023-05-12T01:40:23;98855.56;;;22.34;40.62
57574;BME280;68988;49.000;21.242;2023-05-12T01:42:48;98856.91;;;22.37;40.54
57574;BME280;68988;49.000;21.242;2023-05-12T01:45:13;98865.41;;;22.33;40.64
57574;BME280;68988;49.000;21.242;2023-05-12T01:47:39;98857.97;;;22.35;40.71
57574;BME280;68988;49.000;21.242;2023-05-12T01:50:05;98863.31;;;22.35;40.63
57574;BME280;68988;49.000;21.242;2023-05-12T01:52:31;98859.56;;;22.37;40.76
57574;BME280;68988;49.000;21.242;2023-05-12T01:54:56;98854.72;;;22.33;40.50
57574;BME280;68988;49.000;21.242;2023-05-12T01:57:22;98863.31;;;22.35;40.25
57574;BME280;68988;49.000;21.242;2023-05-12T01:59:47;98871.59;;;22.34;40.69
57574;BME280;68988;49.000;21.242;2023-05-12T02:02:12;98854.97;;;22.32;40.71
57574;BME280;68988;49.000;21.242;2023-05-12T02:04:38;98851.25;;;22.33;40.70
57574;BME280;68988;49.000;21.242;2023-05-12T02:07:03;98862.19;;;22.31;40.65
57574;BME280;68988;49.000;21.242;2023-05-12T02:09:28;98859.53;;;22.31;40.60
57574;BME280;68988;49.000;21.242;2023-05-12T02:11:54;98869.16;;;22.32;40.60
57574;BME280;68988;49.000;21.242;2023-05-12T02:14:19;98862.19;;;22.31;40.72
57574;BME280;68988;49.000;21.242;2023-05-12T02:16:45;98860.56;;;22.30;40.56
57574;BME280;68988;49.000;21.242;2023-05-12T02:19:14;98856.84;;;22.31;40.57
57574;BME280;68988;49.000;21.242;2023-05-12T02:21:39;98862.19;;;22.31;40.69
57574;BME280;68988;49.000;21.242;2023-05-12T02:24:05;98857.91;;;22.30;40.50
57574;BME280;68988;49.000;21.242;2023-05-12T02:26:30;98856.06;;;22.31;40.52
57574;BME280;68988;49.000;21.242;2023-05-12T02:28:55;98862.19;;;22.31;40.66
57574;BME280;68988;49.000;21.242;2023-05-12T02:31:21;98869.97;;;22.33;40.44
57574;BME280;68988;49.000;21.242;2023-05-12T02:33:46;98865.09;;;22.30;40.44
57574;BME280;68988;49.000;21.242;2023-05-12T02:36:12;98869.16;;;22.32;40.63
57574;BME280;68988;49.000;21.242;2023-05-12T02:38:37;98877.66;;;22.29;40.55
57574;BME280;68988;49.000;21.242;2023-05-12T02:41:04;98882.41;;;22.27;40.55
57574;BME280;68988;49.000;21.242;2023-05-12T02:43:30;98879.75;;;22.27;40.51
57574;BME280;68988;49.000;21.242;2023-05-12T02:45:55;98883.25;;;22.28;40.42
57574;BME280;68988;49.000;21.242;2023-05-12T02:48:20;98868.25;;;22.27;40.43
57574;BME280;68988;49.000;21.242;2023-05-12T02:50:46;98878.69;;;22.28;40.60
57574;BME280;68988;49.000;21.242;2023-05-12T02:53:11;98884.03;;;22.28;40.48
57574;BME280;68988;49.000;21.242;2023-05-12T02:55:37;98881.38;;;22.28;40.53
57574;BME280;68988;49.000;21.242;2023-05-12T02:58:03;98884.03;;;22.28;40.39
57574;BME280;68988;49.000;21.242;2023-05-12T03:00:28;98886.16;;;22.26;40.40
57574;BME280;68988;49.000;21.242;2023-05-12T03:02:53;98891.50;;;22.26;40.26
57574;BME280;68988;49.000;21.242;2023-05-12T03:05:19;98886.72;;;22.28;40.50
57574;BME280;68988;49.000;21.242;2023-05-12T03:07:46;98893.09;;;22.27;40.43
57574;BME280;68988;49.000;21.242;2023-05-12T03:10:12;98888.84;;;22.26;40.27
57574;BME280;68988;49.000;21.242;2023-05-12T03:12:38;98877.56;;;22.24;40.26
57574;BME280;68988;49.000;21.242;2023-05-12T03:15:03;98888.00;;;22.26;40.41
57574;BME280;68988;49.000;21.242;2023-05-12T03:17:29;98897.66;;;22.27;40.46
57574;BME280;68988;49.000;21.242;2023-05-12T03:19:54;98897.34;;;22.23;40.66
57574;BME280;68988;49.000;21.242;2023-05-12T03:22:19;98905.91;;;22.25;40.35
57574;BME280;68988;49.000;21.242;2023-05-12T03:24:45;98907.53;;;22.26;40.43
57574;BME280;68988;49.000;21.242;2023-05-12T03:27:10;98906.72;;;22.26;40.23
57574;BME280;68988;49.000;21.242;2023-05-12T03:29:36;98913.66;;;22.27;40.17
57574;BME280;68988;49.000;21.242;2023-05-12T03:32:02;98913.66;;;22.27;40.38
57574;BME280;68988;49.000;21.242;2023-05-12T03:34:27;98903.78;;;22.27;40.27
57574;BME280;68988;49.000;21.242;2023-05-12T03:36:52;98916.59;;;22.25;40.49
57574;BME280;68988;49.000;21.242;2023-05-12T03:39:17;98919.03;;;22.27;40.34
57574;BME280;68988;49.000;21.242;2023-05-12T03:41:43;98909.72;;;22.29;40.13
57574;BME280;68988;49.000;21.242;2023-05-12T03:44:08;98908.16;;;22.33;40.10
57574;BME280;68988;49.000;21.242;2023-05-12T03:46:35;98915.44;;;22.38;39.90
57574;BME280;68988;49.000;21.242;2023-05-12T03:49:00;98907.75;;;22.42;39.81
57574;BME280;68988;49.000;21.242;2023-05-12T03:51:25;98917.69;;;22.46;39.88
57574;BME280;68988;49.000;21.242;2023-05-12T03:53:52;98913.75;;;22.54;40.03
57574;BME280;68988;49.000;21.242;2023-05-12T03:56:17;98920.19;;;22.58;39.72
57574;BME280;68988;49.000;21.242;2023-05-12T03:58:42;98923.75;;;22.64;39.49
57574;BME280;68988;49.000;21.242;2023-05-12T04:01:08;98926.72;;;22.67;39.50
57574;BME280;68988;49.000;21.242;2023-05-12T04:03:33;98927.28;;;22.69;39.72
57574;BME280;68988;49.000;21.242;2023-05-12T04:06:00;98932.13;;;22.73;39.67
57574;BME280;68988;49.000;21.242;2023-05-12T04:08:26;98938.81;;;22.75;39.65
57574;BME280;68988;49.000;21.242;2023-05-12T04:10:56;98936.13;;;22.75;39.37
57574;BME280;68988;49.000;21.242;2023-05-12T04:13:23;98939.69;;;22.81;39.54
57574;BME280;68988;49.000;21.242;2023-05-12T04:15:49;98947.72;;;22.81;39.50
57574;BME280;68988;49.000;21.242;2023-05-12T04:18:15;98949.63;;;22.85;39.32
57574;BME280;68988;49.000;21.242;2023-05-12T04:20:42;98948.31;;;22.88;39.35
57574;BME280;68988;49.000;21.242;2023-05-12T04:23:07;98947.25;;;22.89;39.52
57574;BME280;68988;49.000;21.242;2023-05-12T04:25:32;98951.00;;;22.88;39.38
57574;BME280;68988;49.000;21.242;2023-05-12T04:27:58;98955.50;;;22.87;39.44
57574;BME280;68988;49.000;21.242;2023-05-12T04:30:23;98951.50;;;22.85;39.25
57574;BME280;68988;49.000;21.242;2023-05-12T04:32:48;98952.56;;;22.84;39.46
57574;BME280;68988;49.000;21.242;2023-05-12T04:35:14;98957.41;;;22.87;39.21
57574;BME280;68988;49.000;21.242;2023-05-12T04:37:40;98958.25;;;22.93;39.22
57574;BME280;68988;49.000;21.242;2023-05-12T04:40:06;98961.78;;;22.98;39.14
57574;BME280;68988;49.000;21.242;2023-05-12T04:42:33;98961.78;;;22.98;39.23
57574;BME280;68988;49.000;21.242;2023-05-12T04:44:58;98964.19;;;23.00;39.03
57574;BME280;68988;49.000;21.242;2023-05-12T04:47:24;98960.97;;;22.98;39.26
57574;BME280;68988;49.000;21.242;2023-05-12T04:49:49;98958.56;;;22.96;39.21
57574;BME280;68988;49.000;21.242;2023-05-12T04:52:15;98959.06;;;22.93;39.15
57574;BME280;68988;49.000;21.242;2023-05-12T04:54:40;98959.06;;;22.93;39.11
57574;BME280;68988;49.000;21.242;2023-05-12T04:57:05;98962.78;;;22.92;39.11
57574;BME280;68988;49.000;21.242;2023-05-12T04:59:31;98962.78;;;22.92;39.13
57574;BME280;68988;49.000;21.242;2023-05-12T05:01:56;98970.25;;;22.90;39.49
57574;BME280;68988;49.000;21.242;2023-05-12T05:04:22;98961.19;;;22.91;39.37
57574;BME280;68988;49.000;21.242;2023-05-12T05:06:47;98975.59;;;22.90;39.14
57574;BME280;68988;49.000;21.242;2023-05-12T05:09:12;98976.16;;;22.92;39.41
57574;BME280;68988;49.000;21.242;2023-05-12T05:11:38;98977.56;;;23.00;39.31
57574;BME280;68988;49.000;21.242;2023-05-12T05:14:03;98973.84;;;23.01;38.87
57574;BME280;68988;49.000;21.242;2023-05-12T05:16:28;98974.34;;;22.98;38.81
57574;BME280;68988;49.000;21.242;2023-05-12T05:18:54;98968.00;;;23.04;38.97
57574;BME280;68988;49.000;21.242;2023-05-12T05:21:19;98973.84;;;23.01;39.01
57574;BME280;68988;49.000;21.242;2023-05-12T05:23:45;98970.63;;;22.99;39.29
57574;BME280;68988;49.000;21.242;2023-05-12T05:26:10;98966.06;;;22.99;39.60
57574;BME280;68988;49.000;21.242;2023-05-12T05:28:36;98974.13;;;23.04;39.79
57574;BME280;68988;49.000;21.242;2023-05-12T05:31:04;98977.88;;;23.03;39.83
57574;BME280;68988;49.000;21.242;2023-05-12T05:33:29;98985.34;;;23.01;39.77
57574;BME280;68988;49.000;21.242;2023-05-12T05:35:55;98979.75;;;23.03;39.88
57574;BME280;68988;49.000;21.242;2023-05-12T05:38:20;98977.31;;;23.01;40.10
57574;BME280;68988;49.000;21.242;2023-05-12T05:40:46;98971.97;;;23.01;39.91
57574;BME280;68988;49.000;21.242;2023-05-12T05:43:11;98974.09;;;22.99;40.17
57574;BME280;68988;49.000;21.242;2023-05-12T05:45:36;98971.97;;;23.01;40.15
57574;BME280;68988;49.000;21.242;2023-05-12T05:48:02;98973.84;;;23.01;40.24
57574;BME280;68988;49.000;21.242;2023-05-12T05:50:27;98974.38;;;23.03;40.11
57574;BME280;68988;49.000;21.242;2023-05-12T05:52:53;98985.91;;;23.03;40.29
57574;BME280;68988;49.000;21.242;2023-05-12T05:55:19;98986.97;;;23.02;40.51
57574;BME280;68988;49.000;21.242;2023-05-12T05:57:45;98985.91;;;23.03;40.72
57574;BME280;68988;49.000;21.242;2023-05-12T06:00:11;98989.94;;;23.06;40.80
57574;BME280;68988;49.000;21.242;2023-05-12T06:02:37;98980.84;;;23.07;40.96
57574;BME280;68988;49.000;21.242;2023-05-12T06:05:02;98986.22;;;23.07;41.41
57574;BME280;68988;49.000;21.242;2023-05-12T06:07:27;98983.53;;;23.07;41.74
57574;BME280;68988;49.000;21.242;2023-05-12T06:09:53;98992.19;;;23.14;41.71
57574;BME280;68988;49.000;21.242;2023-05-12T06:12:19;98995.97;;;23.18;41.57
57574;BME280;68988;49.000;21.242;2023-05-12T06:14:44;99008.00;;;23.16;41.83
57574;BME280;68988;49.000;21.242;2023-05-12T06:17:10;98997.81;;;23.13;41.67
57574;BME280;68988;49.000;21.242;2023-05-12T06:19:35;98994.63;;;23.16;41.65
57574;BME280;68988;49.000;21.242;2023-05-12T06:22:01;98997.84;;;23.18;41.78
57574;BME280;68988;49.000;21.242;2023-05-12T06:24:26;98999.22;;;23.20;41.82
57574;BME280;68988;49.000;21.242;2023-05-12T06:26:52;98997.88;;;23.23;41.82
57574;BME280;68988;49.000;21.242;2023-05-12T06:29:17;99001.38;;;23.23;42.15
57574;BME280;68988;49.000;21.242;2023-05-12T06:31:43;99003.56;;;23.27;42.23
57574;BME280;68988;49.000;21.242;2023-05-12T06:34:09;99003.31;;;23.28;42.15
57574;BME280;68988;49.000;21.242;2023-05-12T06:36:34;98998.50;;;23.30;42.47
57574;BME280;68988;49.000;21.242;2023-05-12T06:38:59;99002.03;;;23.36;42.67
57574;BME280;68988;49.000;21.242;2023-05-12T06:41:25;98997.22;;;23.38;42.40
57574;BME280;68988;49.000;21.242;2023-05-12T06:43:51;98996.44;;;23.37;42.39
57574;BME280;68988;49.000;21.242;2023-05-12T06:46:17;99000.16;;;23.36;42.42
57574;BME280;68988;49.000;21.242;2023-05-12T06:48:42;99003.88;;;23.35;42.51
57574;BME280;68988;49.000;21.242;2023-05-12T06:51:07;98999.09;;;23.37;42.46
57574;BME280;68988;49.000;21.242;2023-05-12T06:53:33;98992.66;;;23.38;42.25
57574;BME280;68988;49.000;21.242;2023-05-12T06:56:02;98988.16;;;23.39;42.15
57574;BME280;68988;49.000;21.242;2023-05-12T06:58:28;98988.94;;;23.39;42.08
57574;BME280;68988;49.000;21.242;2023-05-12T07:00:53;98974.00;;;23.44;41.92
57574;BME280;68988;49.000;21.242;2023-05-12T07:03:19;98987.41;;;23.49;42.08
57574;BME280;68988;49.000;21.242;2023-05-12T07:05:44;98965.47;;;23.47;41.97
57574;BME280;68988;49.000;21.242;2023-05-12T07:08:10;98981.00;;;23.50;41.82
57574;BME280;68988;49.000;21.242;2023-05-12T07:10:35;98977.31;;;23.56;41.84
57574;BME280;68988;49.000;21.242;2023-05-12T07:13:02;98964.47;;;23.58;42.19
57574;BME280;68988;49.000;21.242;2023-05-12T07:15:27;98968.69;;;23.54;42.05
57574;BME280;68988;49.000;21.242;2023-05-12T07:17:53;98971.94;;;23.56;42.22
57574;BME280;68988;49.000;21.242;2023-05-12T07:20:20;98974.38;;;23.57;42.43
57574;BME280;68988;49.000;21.242;2023-05-12T07:22:45;98969.81;;;23.58;42.67
57574;BME280;68988;49.000;21.242;2023-05-12T07:25:11;98967.13;;;23.58;42.58
57574;BME280;68988;49.000;21.242;2023-05-12T07:27:37;98969.81;;;23.58;42.84
57574;BME280;68988;49.000;21.242;2023-05-12T07:30:04;98964.47;;;23.58;43.13
57574;BME280;68988;49.000;21.242;2023-05-12T07:32:30;98967.16;;;23.63;43.04
57574;BME280;68988;49.000;21.242;2023-05-12T07:34:55;98967.16;;;23.63;43.15
57574;BME280;68988;49.000;21.242;2023-05-12T07:37:20;98960.22;;;23.62;43.10
57574;BME280;68988;49.000;21.242;2023-05-12T07:39:46;98965.06;;;23.65;43.42
57574;BME280;68988;49.000;21.242;2023-05-12T07:42:11;98964.22;;;23.65;43.31
57574;BME280;68988;49.000;21.242;2023-05-12T07:44:37;98958.88;;;23.65;43.53
57574;BME280;68988;49.000;21.242;2023-05-12T07:47:02;98960.00;;;23.69;43.83
57574;BME280;68988;49.000;21.242;2023-05-12T07:49:27;98962.41;;;23.70;43.70
57574;BME280;68988;49.000;21.242;2023-05-12T07:51:53;98958.69;;;23.71;43.83
57574;BME280;68988;49.000;21.242;2023-05-12T07:54:18;98956.53;;;23.73;43.87
57574;BME280;68988;49.000;21.242;2023-05-12T07:56:43;98955.75;;;23.73;43.77
57574;BME280;68988;49.000;21.242;2023-05-12T07:59:09;98958.16;;;23.74;43.84
57574;BME280;68988;49.000;21.242;2023-05-12T08:01:35;98968.03;;;23.74;43.83
57574;BME280;68988;49.000;21.242;2023-05-12T08:04:01;98964.59;;;23.78;43.77
57574;BME280;68988;49.000;21.242;2023-05-12T08:06:26;98964.06;;;23.76;43.77
57574;BME280;68988;49.000;21.242;2023-05-12T08:08:51;98959.75;;;23.75;43.72
57574;BME280;68988;49.000;21.242;2023-05-12T08:11:17;98967.00;;;23.75;43.79
57574;BME280;68988;49.000;21.242;2023-05-12T08:13:42;98958.97;;;23.75;43.56
57574;BME280;68988;49.000;21.242;2023-05-12T08:16:08;98964.59;;;23.78;43.55
57574;BME280;68988;49.000;21.242;2023-05-12T08:18:33;98957.13;;;23.81;43.60
57574;BME280;68988;49.000;21.242;2023-05-12T08:20:58;98953.09;;;23.78;43.61
57574;BME280;68988;49.000;21.242;2023-05-12T08:23:24;98962.47;;;23.81;43.46
57574;BME280;68988;49.000;21.242;2023-05-12T08:25:49;98961.41;;;23.82;43.55
57574;BME280;68988;49.000;21.242;2023-05-12T08:28:15;98958.72;;;23.82;43.65
57574;BME280;68988;49.000;21.242;2023-05-12T08:30:41;98959.06;;;23.85;43.75
57574;BME280;68988;49.000;21.242;2023-05-12T08:33:06;98959.84;;;23.86;43.80
57574;BME280;68988;49.000;21.242;2023-05-12T08:35:31;98961.47;;;23.87;43.82
57574;BME280;68988;49.000;21.242;2023-05-12T08:37:57;98954.25;;;23.87;44.06
57574;BME280;68988;49.000;21.242;2023-05-12T08:40:24;98953.97;;;23.89;44.16
57574;BME280;68988;49.000;21.242;2023-05-12T08:45:20;98937.41;;;23.92;44.14
57574;BME280;68988;49.000;21.242;2023-05-12T08:47:48;98946.22;;;23.92;44.20
57574;BME280;68988;49.000;21.242;2023-05-12T08:50:16;98943.28;;;23.94;44.06
57574;BME280;68988;49.000;21.242;2023-05-12T08:52:42;98940.06;;;23.92;44.12
57574;BME280;68988;49.000;21.242;2023-05-12T08:55:08;98938.44;;;23.91;44.41
57574;BME280;68988;49.000;21.242;2023-05-12T08:57:34;98937.91;;;23.89;44.26
57574;BME280;68988;49.000;21.242;2023-05-12T09:00:01;98941.69;;;23.93;44.32
57574;BME280;68988;49.000;21.242;2023-05-12T09:02:29;98938.50;;;23.96;44.22
57574;BME280;68988;49.000;21.242;2023-05-12T09:04:55;98939.28;;;23.97;44.29
57574;BME280;68988;49.000;21.242;2023-05-12T09:07:21;98938.50;;;23.96;44.45
57574;BME280;68988;49.000;21.242;2023-05-12T09:09:57;98939.03;;;23.98;44.19
57574;BME280;68988;49.000;21.242;2023-05-12T09:12:24;98946.53;;;23.96;44.40
57574;BME280;68988;49.000;21.242;2023-05-12T09:14:59;98943.06;;;24.01;44.42
57574;BME280;68988;49.000;21.242;2023-05-12T09:17:27;98937.72;;;24.01;44.58
57574;BME280;68988;49.000;21.242;2023-05-12T09:19:52;98932.63;;;23.99;44.59
57574;BME280;68988;49.000;21.242;2023-05-12T09:22:26;98931.59;;;24.05;44.29
57574;BME280;68988;49.000;21.242;2023-05-12T09:24:52;98928.06;;;24.00;44.79
57574;BME280;68988;49.000;21.242;2023-05-12T09:27:23;98936.38;;;24.03;44.54
57574;BME280;68988;49.000;21.242;2023-05-12T09:29:50;98929.69;;;24.01;44.71
57574;BME280;68988;49.000;21.242;2023-05-12T09:32:15;98932.09;;;24.02;44.75
57574;BME280;68988;49.000;21.242;2023-05-12T09:34:42;98931.03;;;24.03;44.53
57574;BME280;68988;49.000;21.242;2023-05-12T09:37:07;98927.25;;;23.99;44.81
57574;BME280;68988;49.000;21.242;2023-05-12T09:39:33;98932.91;;;24.03;44.88
57574;BME280;68988;49.000;21.242;2023-05-12T09:41:59;98924.06;;;24.02;44.74
57574;BME280;68988;49.000;21.242;2023-05-12T09:44:25;98919.25;;;24.04;44.66
57574;BME280;68988;49.000;21.242;2023-05-12T09:46:51;98917.88;;;24.02;44.99
57574;BME280;68988;49.000;21.242;2023-05-12T09:49:21;98912.25;;;24.03;44.89
57574;BME280;68988;49.000;21.242;2023-05-12T09:51:51;98917.63;;;24.03;45.05
57574;BME280;68988;49.000;21.242;2023-05-12T09:54:29;98920.34;;;24.08;44.96
57574;BME280;68988;49.000;21.242;2023-05-12T09:57:02;98923.03;;;24.08;45.12
57574;BME280;68988;49.000;21.242;2023-05-12T09:59:35;98924.09;;;24.07;45.17
57574;BME280;68988;49.000;21.242;2023-05-12T10:02:04;98919.50;;;24.03;45.28
57574;BME280;68988;49.000;21.242;2023-05-12T10:04:44;98903.72;;;24.06;44.87
57574;BME280;68988;49.000;21.242;2023-05-12T10:07:13;98914.94;;;24.03;44.86
57574;BME280;68988;49.000;21.242;2023-05-12T10:09:41;98924.09;;;24.07;44.86
57574;BME280;68988;49.000;21.242;2023-05-12T10:12:07;98915.50;;;24.05;44.81
57574;BME280;68988;49.000;21.242;2023-05-12T10:14:34;98923.03;;;24.08;44.85
57574;BME280;68988;49.000;21.242;2023-05-12T10:17:00;98910.69;;;24.07;44.97
57574;BME280;68988;49.000;21.242;2023-05-12T10:19:29;98910.94;;;24.06;44.86
57574;BME280;68988;49.000;21.242;2023-05-12T10:21:56;98924.09;;;24.07;45.03
57574;BME280;68988;49.000;21.242;2023-05-12T10:24:24;98925.72;;;24.08;45.03
57574;BME280;68988;49.000;21.242;2023-05-12T10:26:52;98920.34;;;24.08;45.09
57574;BME280;68988;49.000;21.242;2023-05-12T10:29:19;98923.56;;;24.10;45.01
57574;BME280;68988;49.000;21.242;2023-05-12T10:31:46;98922.00;;;24.20;45.10
57574;BME280;68988;49.000;21.242;2023-05-12T10:34:16;98915.53;;;24.16;45.23
57574;BME280;68988;49.000;21.242;2023-05-12T10:36:47;98908.34;;;24.21;45.25
57574;BME280;68988;49.000;21.242;2023-05-12T10:39:14;98907.22;;;24.07;45.09
57574;BME280;68988;49.000;21.242;2023-05-12T10:41:40;98901.59;;;24.13;44.87
57574;BME280;68988;49.000;21.242;2023-05-12T10:44:05;98904.53;;;24.12;44.84
57574;BME280;68988;49.000;21.242;2023-05-12T10:46:31;98909.38;;;24.10;45.14
57574;BME280;68988;49.000;21.242;2023-05-12T10:49:05;98895.97;;;24.10;45.42
57574;BME280;68988;49.000;21.242;2023-05-12T10:51:46;98899.72;;;24.14;44.84
57574;BME280;68988;49.000;21.242;2023-05-12T10:54:20;98902.13;;;24.10;45.33
57574;BME280;68988;49.000;21.242;2023-05-12T10:56:46;98903.19;;;24.09;45.47
57574;BME280;68988;49.000;21.242;2023-05-12T10:59:12;98902.38;;;24.09;45.35
57574;BME280;68988;49.000;21.242;2023-05-12T11:01:40;98904.28;;;24.08;45.41
57574;BME280;68988;49.000;21.242;2023-05-12T11:04:13;98899.47;;;24.16;44.82
57574;BME280;68988;49.000;21.242;2023-05-12T11:06:39;98902.94;;;24.11;45.00
57574;BME280;68988;49.000;21.242;2023-05-12T11:09:04;98905.34;;;24.12;44.77
57574;BME280;68988;49.000;21.242;2023-05-12T11:11:30;98913.63;;;24.11;45.10
57574;BME280;68988;49.000;21.242;2023-05-12T11:13:56;98906.44;;;24.11;44.94
57574;BME280;68988;49.000;21.242;2023-05-12T11:16:22;98908.59;;;24.15;45.40
57574;BME280;68988;49.000;21.242;2023-05-12T11:18:48;98910.19;;;24.16;45.25
57574;BME280;68988;49.000;21.242;2023-05-12T11:21:24;98909.66;;;24.13;45.31
57574;BME280;68988;49.000;21.242;2023-05-12T11:23:49;98901.59;;;24.13;45.38
57574;BME280;68988;49.000;21.242;2023-05-12T11:26:16;98905.91;;;24.15;45.21
57574;BME280;68988;49.000;21.242;2023-05-12T11:28:42;98903.22;;;24.15;45.25
57574;BME280;68988;49.000;21.242;2023-05-12T11:31:07;98900.56;;;24.15;45.31
57574;BME280;68988;49.000;21.242;2023-05-12T11:33:32;98902.13;;;24.16;45.08
57574;BME280;68988;49.000;21.242;2023-05-12T11:35:58;98904.03;;;24.15;45.27
57574;BME280;68988;49.000;21.242;2023-05-12T11:38:23;98903.22;;;24.15;45.22
57574;BME280;68988;49.000;21.242;2023-05-12T11:40:51;98902.13;;;24.16;45.04
57574;BME280;68988;49.000;21.242;2023-05-12T11:43:19;98902.72;;;24.23;45.01
57574;BME280;68988;49.000;21.242;2023-05-12T11:45:45;98906.72;;;24.20;45.24
57574;BME280;68988;49.000;21.242;2023-05-12T11:48:12;98903.50;;;24.18;45.26
57574;BME280;68988;49.000;21.242;2023-05-12T11:50:43;98898.69;;;24.20;45.46
57574;BME280;68988;49.000;21.242;2023-05-12T11:53:11;98892.31;;;24.31;44.79
57574;BME280;68988;49.000;21.242;2023-05-12T11:55:55;98894.69;;;24.28;45.13
57574;BME280;68988;49.000;21.242;2023-05-12T11:58:25;98893.34;;;24.25;45.55
57574;BME280;68988;49.000;21.242;2023-05-12T12:00:52;98892.25;;;24.21;45.79
57574;BME280;68988;49.000;21.242;2023-05-12T12:03:18;98900.81;;;24.23;45.49
57574;BME280;68988;49.000;21.242;2023-05-12T12:05:55;98897.88;;;24.20;45.89
57574;BME280;68988;49.000;21.242;2023-05-12T12:08:21;98897.09;;;24.19;45.74
57574;BME280;68988;49.000;21.242;2023-05-12T12:10:46;98904.28;;;24.19;45.71
57574;BME280;68988;49.000;21.242;2023-05-12T12:13:18;98906.19;;;24.18;45.75
57574;BME280;68988;49.000;21.242;2023-05-12T12:15:43;98908.06;;;24.18;45.96
57574;BME280;68988;49.000;21.242;2023-05-12T12:18:09;98901.88;;;24.17;46.10
57574;BME280;68988;49.000;21.242;2023-05-12T12:20:41;98908.06;;;24.18;45.59
57574;BME280;68988;49.000;21.242;2023-05-12T12:23:07;98908.06;;;24.18;45.80
57574;BME280;68988;49.000;21.242;2023-05-12T12:25:32;98903.75;;;24.17;45.88
57574;BME280;68988;49.000;21.242;2023-05-12T12:27:57;98897.88;;;24.15;45.98
57574;BME280;68988;49.000;21.242;2023-05-12T12:30:23;98900.81;;;24.13;45.75
57574;BME280;68988;49.000;21.242;2023-05-12T12:32:48;98902.97;;;24.16;45.85
57574;BME280;68988;49.000;21.242;2023-05-12T12:35:14;98904.81;;;24.16;45.62
57574;BME280;68988;49.000;21.242;2023-05-12T12:37:40;98899.47;;;24.16;45.47
57574;BME280;68988;49.000;21.242;2023-05-12T12:40:06;98892.50;;;24.15;45.37
57574;BME280;68988;49.000;21.242;2023-05-12T12:42:37;98899.47;;;24.16;45.33
57574;BME280;68988;49.000;21.242;2023-05-12T12:45:03;98900.28;;;24.16;45.43
57574;BME280;68988;49.000;21.242;2023-05-12T12:47:29;98899.47;;;24.16;45.42